createdAt,value
2023-03-26T00:00:25.874Z,49.38
2023-03-26T00:02:52.336Z,49.29
2023-03-26T00:08:12.858Z,49.11
2023-03-26T00:10:39.372Z,49.03
2023-03-26T00:13:06.745Z,49.44
2023-03-26T00:15:33.166Z,49.03
2023-03-26T00:18:00.522Z,49.32
2023-03-26T00:23:12.773Z,49.86
2023-03-26T00:25:41.963Z,49.49
2023-03-26T00:28:09.195Z,49.65
2023-03-26T00:30:37.493Z,50.07
2023-03-26T00:33:03.997Z,49.72
2023-03-26T00:38:14.364Z,49.55
2023-03-26T00:40:40.710Z,49.53
2023-03-26T00:43:07.929Z,49.85
2023-03-26T00:45:34.288Z,49.77
2023-03-26T00:48:02.562Z,50.39
2023-03-26T00:53:23.431Z,49.78
2023-03-26T00:55:49.892Z,49.36
2023-03-26T00:58:16.272Z,49.45
2023-03-26T01:00:43.192Z,49.53
2023-03-26T01:03:12.961Z,49.63
2023-03-26T01:08:41.100Z,49.63
2023-03-26T01:11:08.307Z,49.77
2023-03-26T01:13:36.605Z,50.12
2023-03-26T01:16:04.929Z,49.69
2023-03-26T01:18:32.163Z,49.65
2023-03-26T01:23:42.463Z,49.44
2023-03-26T01:26:08.794Z,50.04
2023-03-26T01:28:35.141Z,49.97
2023-03-26T01:31:01.488Z,49.43
2023-03-26T01:33:27.898Z,49.92
2023-03-26T01:35:54.445Z,49.72
2023-03-26T01:38:21.012Z,49.85
2023-03-26T01:40:47.424Z,50.15
2023-03-26T01:43:14.657Z,49.81
2023-03-26T01:45:40.980Z,50.05
2023-03-26T01:48:07.312Z,50.42
2023-03-26T01:50:33.659Z,50.37
2023-03-26T01:52:59.969Z,49.66
2023-03-26T01:55:26.346Z,49.76
2023-03-26T01:57:52.717Z,50.13
2023-03-26T02:00:19.062Z,49.88
2023-03-26T02:02:45.545Z,50.36
2023-03-26T02:05:12.104Z,49.99
2023-03-26T02:07:38.460Z,49.89
2023-03-26T02:10:04.830Z,50.46
2023-03-26T02:12:31.201Z,49.67
2023-03-26T02:14:57.526Z,49.75
2023-03-26T02:17:24.145Z,49.86
2023-03-26T02:19:50.689Z,49.76
2023-03-26T02:22:17.017Z,50.16
2023-03-26T02:24:43.382Z,49.98
2023-03-26T02:27:09.707Z,50.32
2023-03-26T02:29:36.053Z,49.71
2023-03-26T02:32:02.439Z,50.05
2023-03-26T02:34:28.800Z,50.18
2023-03-26T02:36:55.147Z,49.81
2023-03-26T02:42:15.417Z,50.22
2023-03-26T02:44:41.807Z,50.06
2023-03-26T02:47:08.159Z,49.95
2023-03-26T02:49:34.508Z,50.03
2023-03-26T02:52:00.861Z,50.21
2023-03-26T02:57:10.810Z,50.03
2023-03-26T02:59:37.163Z,50.13
2023-03-26T03:02:03.672Z,49.81
2023-03-26T03:04:30.151Z,50.13
2023-03-26T03:06:56.510Z,49.94
2023-03-26T03:12:16.531Z,50.20
2023-03-26T03:14:42.905Z,49.87
2023-03-26T03:17:09.287Z,50.05
2023-03-26T03:19:35.636Z,50.10
2023-03-26T03:22:03.079Z,50.14
2023-03-26T03:27:23.101Z,50.29
2023-03-26T03:29:49.444Z,50.10
2023-03-26T03:32:15.799Z,50.80
2023-03-26T03:34:42.119Z,50.47
2023-03-26T03:37:08.467Z,50.59
2023-03-26T03:42:18.868Z,50.18
2023-03-26T03:44:45.178Z,50.35
2023-03-26T03:47:11.526Z,50.24
2023-03-26T03:49:37.859Z,50.23
2023-03-26T03:52:04.298Z,50.57
2023-03-26T03:57:14.428Z,50.22
2023-03-26T03:59:47.615Z,50.50
2023-03-26T04:02:14.507Z,50.53
2023-03-26T04:04:40.900Z,49.99
2023-03-26T04:07:07.296Z,50.22
2023-03-26T04:12:17.501Z,50.22
2023-03-26T04:14:43.858Z,50.03
2023-03-26T04:17:10.176Z,50.32
2023-03-26T04:19:36.492Z,49.93
2023-03-26T04:22:02.835Z,50.55
2023-03-26T04:27:23.060Z,50.12
2023-03-26T04:29:49.391Z,50.26
2023-03-26T04:32:15.736Z,50.25
2023-03-26T04:34:42.105Z,49.80
2023-03-26T04:37:08.471Z,50.04
2023-03-26T04:42:28.630Z,49.67
2023-03-26T04:44:54.972Z,49.59
2023-03-26T04:47:24.134Z,49.99
2023-03-26T04:49:50.509Z,49.90
2023-03-26T04:52:16.813Z,50.07
2023-03-26T04:57:36.953Z,49.80
2023-03-26T05:00:03.321Z,50.14
2023-03-26T05:02:29.681Z,49.66
2023-03-26T05:04:56.014Z,49.86
2023-03-26T05:07:25.128Z,49.81
2023-03-26T05:12:45.533Z,49.93
2023-03-26T05:15:11.897Z,49.85
2023-03-26T05:17:38.233Z,49.83
2023-03-26T05:20:04.594Z,50.11
2023-03-26T05:22:30.910Z,49.84
2023-03-26T05:24:57.252Z,49.85
2023-03-26T05:27:23.614Z,50.43
2023-03-26T05:29:49.949Z,49.96
2023-03-26T05:32:16.260Z,50.30
2023-03-26T05:34:42.620Z,49.75
2023-03-26T05:37:08.980Z,49.87
2023-03-26T05:39:35.298Z,49.98
2023-03-26T05:42:01.701Z,49.98
2023-03-26T05:44:28.038Z,50.23
2023-03-26T05:46:54.390Z,50.11
2023-03-26T05:49:20.745Z,50.36
2023-03-26T05:51:47.099Z,49.81
2023-03-26T05:54:13.427Z,49.73
2023-03-26T05:56:39.778Z,50.23
2023-03-26T05:59:06.102Z,50.05
2023-03-26T06:01:32.416Z,50.37
2023-03-26T06:03:58.788Z,50.49
2023-03-26T06:06:25.139Z,50.71
2023-03-26T06:09:02.312Z,50.38
2023-03-26T06:11:31.069Z,50.83
2023-03-26T06:13:59.383Z,50.51
2023-03-26T06:16:28.664Z,50.14
2023-03-26T06:18:56.630Z,50.24
2023-03-26T06:21:24.066Z,50.36
2023-03-26T06:23:50.510Z,50.16
2023-03-26T06:26:17.924Z,49.96
2023-03-26T06:28:44.384Z,50.16
2023-03-26T06:31:10.910Z,50.23
2023-03-26T06:33:38.336Z,49.73
2023-03-26T06:36:04.912Z,50.09
2023-03-26T06:38:32.296Z,50.12
2023-03-26T06:40:58.787Z,49.45
2023-03-26T06:46:12.247Z,50.36
2023-03-26T06:48:38.722Z,50.24
2023-03-26T06:51:06.033Z,50.28
2023-03-26T06:53:34.330Z,50.36
2023-03-26T06:56:00.711Z,50.20
2023-03-26T07:01:21.197Z,49.88
2023-03-26T07:03:47.689Z,50.00
2023-03-26T07:06:15.034Z,49.94
2023-03-26T07:08:43.374Z,49.94
2023-03-26T07:11:09.806Z,49.91
2023-03-26T07:16:30.706Z,49.84
2023-03-26T07:18:57.120Z,50.05
2023-03-26T07:21:23.503Z,49.40
2023-03-26T07:23:49.853Z,48.90
2023-03-26T07:26:16.219Z,49.22
2023-03-26T07:31:26.283Z,49.05
2023-03-26T07:33:52.620Z,49.41
2023-03-26T07:36:19.882Z,49.64
2023-03-26T07:38:46.222Z,49.33
2023-03-26T07:41:13.428Z,49.52
2023-03-26T07:46:34.986Z,49.34
2023-03-26T07:49:01.463Z,49.86
2023-03-26T07:51:29.745Z,49.40
2023-03-26T07:53:58.924Z,49.33
2023-03-26T07:56:25.466Z,49.39
2023-03-26T08:01:36.916Z,49.54
2023-03-26T08:04:25.237Z,49.56
2023-03-26T08:06:50.629Z,49.68
2023-03-26T08:09:17.055Z,49.50
2023-03-26T08:11:44.338Z,49.38
2023-03-26T08:16:55.679Z,49.53
2023-03-26T08:19:22.139Z,49.30
2023-03-26T08:21:48.590Z,49.60
2023-03-26T08:24:15.048Z,49.71
2023-03-26T08:26:41.528Z,49.58
2023-03-26T08:32:06.657Z,49.44
2023-03-26T08:34:33.151Z,49.16
2023-03-26T08:36:59.617Z,49.29
2023-03-26T08:39:26.081Z,49.67
2023-03-26T08:41:54.392Z,49.40
2023-03-26T08:47:15.727Z,49.91
2023-03-26T08:49:42.127Z,49.59
2023-03-26T08:52:09.366Z,49.63
2023-03-26T08:54:35.725Z,49.72
2023-03-26T08:57:02.103Z,50.30
2023-03-26T09:02:13.090Z,50.35
2023-03-26T09:04:39.523Z,50.14
2023-03-26T09:07:05.877Z,50.24
2023-03-26T09:09:32.213Z,50.30
2023-03-26T09:11:58.590Z,50.39
2023-03-26T09:17:09.085Z,50.02
2023-03-26T09:19:35.450Z,50.16
2023-03-26T09:22:01.820Z,49.95
2023-03-26T09:24:28.157Z,50.06
2023-03-26T09:26:54.498Z,50.17
2023-03-26T09:32:14.758Z,50.12
2023-03-26T09:34:41.213Z,49.99
2023-03-26T09:37:07.537Z,49.58
2023-03-26T09:39:36.810Z,50.08
2023-03-26T09:42:03.188Z,49.73
2023-03-26T09:47:13.225Z,49.68
2023-03-26T09:49:39.589Z,49.70
2023-03-26T09:52:05.994Z,49.48
2023-03-26T09:54:32.332Z,49.63
2023-03-26T09:57:00.269Z,49.43
2023-03-26T09:59:26.655Z,49.14
2023-03-26T10:01:52.992Z,49.22
2023-03-26T10:04:19.359Z,49.51
2023-03-26T10:06:45.675Z,48.97
2023-03-26T10:09:12.060Z,49.02
2023-03-26T10:11:38.397Z,49.17
2023-03-26T10:14:04.793Z,49.61
2023-03-26T10:16:31.221Z,50.09
2023-03-26T10:18:57.609Z,50.10
2023-03-26T10:21:26.745Z,50.11
2023-03-26T10:23:54.355Z,50.21
2023-03-26T10:26:20.862Z,50.16
2023-03-26T10:28:47.211Z,49.85
2023-03-26T10:31:13.593Z,49.71
2023-03-26T10:33:39.937Z,50.28
2023-03-26T10:36:08.309Z,50.09
2023-03-26T10:38:34.661Z,49.45
2023-03-26T10:41:01.030Z,49.62
2023-03-26T10:43:27.395Z,49.60
2023-03-26T10:45:53.834Z,49.01
2023-03-26T10:48:20.259Z,49.05
2023-03-26T10:50:46.574Z,49.02
2023-03-26T10:53:12.896Z,49.34
2023-03-26T10:55:39.211Z,49.45
2023-03-26T10:58:05.568Z,49.54
2023-03-26T11:00:31.898Z,49.67
2023-03-26T11:02:58.262Z,49.20
2023-03-26T11:05:24.667Z,49.28
2023-03-26T11:07:51.043Z,49.62
2023-03-26T11:10:17.423Z,49.46
2023-03-26T11:12:43.778Z,49.13
2023-03-26T11:15:10.082Z,48.92
2023-03-26T11:20:33.132Z,48.61
2023-03-26T11:22:59.544Z,48.88
2023-03-26T11:25:25.873Z,48.54
2023-03-26T11:27:52.196Z,49.06
2023-03-26T11:30:18.556Z,48.46
2023-03-26T11:35:40.499Z,48.35
2023-03-26T11:38:07.512Z,48.96
2023-03-26T11:40:33.844Z,48.59
2023-03-26T11:43:00.155Z,48.56
2023-03-26T11:45:26.594Z,48.34
2023-03-26T11:50:36.741Z,47.91
2023-03-26T11:53:03.059Z,47.78
2023-03-26T11:55:29.562Z,48.23
2023-03-26T11:57:55.891Z,47.69
2023-03-26T12:00:25.002Z,47.07
2023-03-26T12:05:45.176Z,47.20
2023-03-26T12:08:11.532Z,47.02
2023-03-26T12:10:38.020Z,47.08
2023-03-26T12:13:04.744Z,47.16
2023-03-26T12:15:31.085Z,46.93
2023-03-26T12:20:54.468Z,47.20
2023-03-26T12:23:20.882Z,47.67
2023-03-26T12:25:47.183Z,47.06
2023-03-26T12:28:13.514Z,47.24
2023-03-26T12:30:39.874Z,46.83
2023-03-26T12:36:02.613Z,46.76
2023-03-26T12:38:28.991Z,46.62
2023-03-26T12:40:55.428Z,46.44
2023-03-26T12:44:54.606Z,46.56
2023-03-26T12:47:57.447Z,46.20
2023-03-26T12:51:48.187Z,46.12
2023-03-26T12:54:15.411Z,45.46
2023-03-26T12:56:41.801Z,45.60
2023-03-26T12:59:08.647Z,45.99
2023-03-26T13:01:35.036Z,45.40
2023-03-26T13:06:59.515Z,46.01
2023-03-26T13:09:30.979Z,46.11
2023-03-26T13:11:57.318Z,45.98
2023-03-26T13:14:23.650Z,46.18
2023-03-26T13:16:50.084Z,46.17
2023-03-26T13:22:00.610Z,46.23
2023-03-26T13:24:26.934Z,46.18
2023-03-26T13:26:53.268Z,46.31
2023-03-26T13:29:20.657Z,46.12
2023-03-26T13:31:47.074Z,46.39
2023-03-26T13:37:11.132Z,45.90
2023-03-26T13:39:37.879Z,47.13
2023-03-26T13:42:04.315Z,46.97
2023-03-26T13:44:30.697Z,47.40
2023-03-26T13:46:57.062Z,47.24
2023-03-26T13:52:07.116Z,46.25
2023-03-26T13:54:33.488Z,46.97
2023-03-26T13:57:00.133Z,46.82
2023-03-26T13:59:26.566Z,46.46
2023-03-26T14:01:52.975Z,46.50
2023-03-26T14:07:03.464Z,46.48
2023-03-26T14:09:30.066Z,46.93
2023-03-26T14:11:56.480Z,46.99
2023-03-26T14:14:23.907Z,46.75
2023-03-26T14:16:50.347Z,46.61
2023-03-26T14:22:10.761Z,47.23
2023-03-26T14:24:37.085Z,47.12
2023-03-26T14:27:03.410Z,46.67
2023-03-26T14:29:30.209Z,45.51
2023-03-26T14:31:56.677Z,45.75
2023-03-26T14:37:06.865Z,46.41
2023-03-26T14:39:33.205Z,46.16
2023-03-26T14:41:59.549Z,45.81
2023-03-26T14:44:25.888Z,46.22
2023-03-26T14:46:55.787Z,46.26
2023-03-26T14:52:06.396Z,46.51
2023-03-26T14:54:32.735Z,47.19
2023-03-26T14:56:59.127Z,46.60
2023-03-26T14:59:25.475Z,46.59
2023-03-26T15:01:51.838Z,47.07
2023-03-26T15:04:18.219Z,47.85
2023-03-26T15:06:44.557Z,47.94
2023-03-26T15:09:10.883Z,48.42
2023-03-26T15:11:37.244Z,48.50
2023-03-26T15:14:03.559Z,48.64
2023-03-26T15:16:29.900Z,48.01
2023-03-26T15:18:56.257Z,48.27
2023-03-26T15:21:22.602Z,48.18
2023-03-26T15:23:48.937Z,48.32
2023-03-26T15:26:15.325Z,48.62
2023-03-26T15:28:41.633Z,49.12
2023-03-26T15:31:08.044Z,48.54
2023-03-26T15:33:34.345Z,47.79
2023-03-26T15:36:00.730Z,48.34
2023-03-26T15:38:27.144Z,48.55
2023-03-26T15:40:54.483Z,48.74
2023-03-26T15:43:21.274Z,48.62
2023-03-26T15:45:47.725Z,48.90
2023-03-26T15:48:14.354Z,49.10
2023-03-26T15:50:40.729Z,49.17
2023-03-26T15:53:07.091Z,49.69
2023-03-26T15:55:33.444Z,49.35
2023-03-26T15:57:59.844Z,49.17
2023-03-26T16:00:26.200Z,48.92
2023-03-26T16:02:52.590Z,49.39
2023-03-26T16:05:20.107Z,49.30
2023-03-26T16:07:49.282Z,49.07
2023-03-26T16:10:15.597Z,48.87
2023-03-26T16:12:41.946Z,49.39
2023-03-26T16:15:09.193Z,48.79
2023-03-26T16:17:35.578Z,48.80
2023-03-26T16:20:01.917Z,49.62
2023-03-26T16:25:27.732Z,49.19
2023-03-26T16:27:57.893Z,49.76
2023-03-26T16:30:24.205Z,50.04
2023-03-26T16:32:50.540Z,49.43
2023-03-26T16:35:16.928Z,49.17
2023-03-26T16:40:30.276Z,49.33
2023-03-26T16:42:56.635Z,49.65
2023-03-26T16:45:23.068Z,49.23
2023-03-26T16:47:49.611Z,48.96
2023-03-26T16:50:16.429Z,48.79
2023-03-26T16:55:26.898Z,48.70
2023-03-26T16:57:53.301Z,49.23
2023-03-26T17:00:20.566Z,48.34
2023-03-26T17:02:47.103Z,49.22
2023-03-26T17:05:13.643Z,49.22
2023-03-26T17:10:33.934Z,48.50
2023-03-26T17:13:01.187Z,48.78
2023-03-26T17:15:27.512Z,49.80
2023-03-26T17:17:54.133Z,48.96
2023-03-26T17:20:20.502Z,49.77
2023-03-26T17:25:30.910Z,49.24
2023-03-26T17:27:57.237Z,49.83
2023-03-26T17:30:23.660Z,49.50
2023-03-26T17:32:50.013Z,49.17
2023-03-26T17:35:16.440Z,49.39
2023-03-26T17:40:26.883Z,49.36
2023-03-26T17:42:53.225Z,49.73
2023-03-26T17:45:20.432Z,49.95
2023-03-26T17:47:46.836Z,49.47
2023-03-26T17:50:13.189Z,49.69
2023-03-26T17:55:23.628Z,49.47
2023-03-26T17:57:49.954Z,49.52
2023-03-26T18:00:16.335Z,49.23
2023-03-26T18:02:42.841Z,49.29
2023-03-26T18:05:09.392Z,49.19
2023-03-26T18:10:30.760Z,49.19
2023-03-26T18:12:57.178Z,49.58
2023-03-26T18:15:25.470Z,49.38
2023-03-26T18:17:53.832Z,49.29
2023-03-26T18:20:20.317Z,49.30
2023-03-26T18:25:41.038Z,48.02
2023-03-26T18:28:08.398Z,47.75
2023-03-26T18:30:36.725Z,47.70
2023-03-26T18:33:04.060Z,47.96
2023-03-26T18:35:30.480Z,47.48
2023-03-26T18:40:51.750Z,47.19
2023-03-26T18:43:28.865Z,47.28
2023-03-26T18:46:01.895Z,47.15
2023-03-26T18:48:31.073Z,47.09
2023-03-26T18:51:00.249Z,46.89
2023-03-26T18:56:26.327Z,46.88
2023-03-26T18:58:52.714Z,46.95
2023-03-26T19:01:25.392Z,47.16
2023-03-26T19:03:53.295Z,47.03
2023-03-26T19:06:19.604Z,47.14
2023-03-26T19:11:39.915Z,47.04
2023-03-26T19:14:06.468Z,46.96
2023-03-26T19:16:32.891Z,46.69
2023-03-26T19:18:59.232Z,46.92
2023-03-26T19:21:25.880Z,46.92
2023-03-26T19:26:37.355Z,47.06
2023-03-26T19:29:04.601Z,46.81
2023-03-26T19:31:31.035Z,46.70
2023-03-26T19:33:57.454Z,46.83
2023-03-26T19:36:23.786Z,46.84
2023-03-26T19:41:33.938Z,47.03
2023-03-26T19:44:00.341Z,47.11
2023-03-26T19:46:26.766Z,46.77
2023-03-26T19:48:55.057Z,46.97
2023-03-26T19:51:21.495Z,46.59
2023-03-26T19:56:42.681Z,46.92
2023-03-26T19:59:09.097Z,46.63
2023-03-26T20:01:35.528Z,46.79
2023-03-26T20:04:03.854Z,46.65
2023-03-26T20:06:42.254Z,46.49
2023-03-26T20:12:03.762Z,46.67
2023-03-26T20:14:31.052Z,46.75
2023-03-26T20:16:57.513Z,46.75
2023-03-26T20:19:23.977Z,46.73
2023-03-26T20:21:50.349Z,46.99
2023-03-26T20:27:11.562Z,46.97
2023-03-26T20:29:39.874Z,46.98
2023-03-26T20:32:07.123Z,47.47
2023-03-26T20:34:33.598Z,47.40
2023-03-26T20:37:01.970Z,47.60
2023-03-26T20:42:16.139Z,47.69
2023-03-26T20:44:42.729Z,47.47
2023-03-26T20:47:12.079Z,47.31
2023-03-26T20:49:38.574Z,48.21
2023-03-26T20:52:05.048Z,48.39
2023-03-26T20:57:17.952Z,47.74
2023-03-26T20:59:44.453Z,48.55
2023-03-26T21:02:12.867Z,48.02
2023-03-26T21:04:39.326Z,47.85
2023-03-26T21:07:15.053Z,48.04
2023-03-26T21:09:44.707Z,47.58
2023-03-26T21:12:14.175Z,48.31
2023-03-26T21:14:42.511Z,48.00
2023-03-26T21:17:08.993Z,47.87
2023-03-26T21:19:35.415Z,48.47
2023-03-26T21:22:05.368Z,47.84
2023-03-26T21:24:31.838Z,48.20
2023-03-26T21:27:01.766Z,47.79
2023-03-26T21:29:30.070Z,47.90
2023-03-26T21:31:56.517Z,47.66
2023-03-26T21:34:25.720Z,47.85
2023-03-26T21:36:52.218Z,48.65
2023-03-26T21:39:18.660Z,47.79
2023-03-26T21:41:45.148Z,48.22
2023-03-26T21:44:13.477Z,48.01
2023-03-26T21:46:39.962Z,47.54
2023-03-26T21:49:06.475Z,47.93
2023-03-26T21:51:32.940Z,47.63
2023-03-26T21:54:00.359Z,47.68
2023-03-26T21:56:26.845Z,47.57
2023-03-26T21:58:53.383Z,47.79
2023-03-26T22:01:19.929Z,48.05
2023-03-26T22:03:46.484Z,48.08
2023-03-26T22:06:13.905Z,47.85
2023-03-26T22:08:40.358Z,47.96
2023-03-26T22:11:09.784Z,48.17
2023-03-26T22:13:37.148Z,47.85
2023-03-26T22:16:04.568Z,47.65
2023-03-26T22:18:31.958Z,47.41
2023-03-26T22:20:59.368Z,47.83
2023-03-26T22:23:28.832Z,47.64
2023-03-26T22:25:58.023Z,47.46
2023-03-26T22:28:25.271Z,47.88
2023-03-26T22:30:52.635Z,47.47
2023-03-26T22:33:19.139Z,47.43
2023-03-26T22:35:47.508Z,48.13
2023-03-26T22:38:15.927Z,47.57
2023-03-26T22:40:44.236Z,47.53
2023-03-26T22:45:55.629Z,47.80
2023-03-26T22:48:22.052Z,48.09
2023-03-26T22:50:48.584Z,47.97
2023-03-26T22:53:15.076Z,47.66
2023-03-26T22:55:43.346Z,47.70
2023-03-26T23:01:08.037Z,47.68
2023-03-26T23:03:38.225Z,47.88
2023-03-26T23:06:07.427Z,47.48
2023-03-26T23:08:36.594Z,47.79
2023-03-26T23:11:05.777Z,47.63
2023-03-26T23:16:19.070Z,48.21
2023-03-26T23:18:48.287Z,48.32
2023-03-26T23:21:17.540Z,48.26
2023-03-26T23:23:43.944Z,48.88
2023-03-26T23:26:12.208Z,47.82
2023-03-26T23:31:34.606Z,48.02
2023-03-26T23:34:03.854Z,47.82
2023-03-26T23:36:30.259Z,48.04
2023-03-26T23:38:56.672Z,47.38
2023-03-26T23:41:25.855Z,47.71
2023-03-26T23:46:37.858Z,47.87
2023-03-26T23:49:07.040Z,47.33
2023-03-26T23:51:33.488Z,47.76
2023-03-26T23:54:02.651Z,47.79
2023-03-26T23:56:29.158Z,47.77
